sensor_id;sensor_type;location;lat;lon;timestamp;temperature;humidity
814;DHT22;389;48.710;9.392;2023-03-01T00:00:35;-0.10;90.60
814;DHT22;389;48.710;9.392;2023-03-01T00:03:03;-0.20;90.70
814;DHT22;389;48.710;9.392;2023-03-01T00:05:50;-0.10;90.90
814;DHT22;389;48.710;9.392;2023-03-01T00:08:19;-0.20;91.00
814;DHT22;389;48.710;9.392;2023-03-01T00:10:48;-0.40;91.00
814;DHT22;389;48.710;9.392;2023-03-01T00:13:13;-0.20;91.20
814;DHT22;389;48.710;9.392;2023-03-01T00:15:58;-0.30;91.10
814;DHT22;389;48.710;9.392;2023-03-01T00:18:43;-0.30;91.00
814;DHT22;389;48.710;9.392;2023-03-01T00:21:30;-0.30;90.90
814;DHT22;389;48.710;9.392;2023-03-01T00:24:40;-0.40;90.80
814;DHT22;389;48.710;9.392;2023-03-01T00:35:14;-0.70;90.80
814;DHT22;389;48.710;9.392;2023-03-01T00:44:28;-0.80;91.00
814;DHT22;389;48.710;9.392;2023-03-01T00:50:06;-1.00;91.70
814;DHT22;389;48.710;9.392;2023-03-01T00:52:59;-1.00;91.80
814;DHT22;389;48.710;9.392;2023-03-01T00:56:10;-0.90;92.20
814;DHT22;389;48.710;9.392;2023-03-01T01:01:25;-1.00;92.50
814;DHT22;389;48.710;9.392;2023-03-01T01:03:58;-1.00;92.90
814;DHT22;389;48.710;9.392;2023-03-01T01:06:26;-0.90;93.10
814;DHT22;389;48.710;9.392;2023-03-01T01:08:53;-0.80;93.20
814;DHT22;389;48.710;9.392;2023-03-01T01:11:20;-0.60;93.20
814;DHT22;389;48.710;9.392;2023-03-01T01:13:47;-0.60;93.10
814;DHT22;389;48.710;9.392;2023-03-01T01:16:14;-0.50;92.90
814;DHT22;389;48.710;9.392;2023-03-01T01:18:39;-0.50;92.70
814;DHT22;389;48.710;9.392;2023-03-01T01:21:11;-0.50;92.60
814;DHT22;389;48.710;9.392;2023-03-01T01:23:38;-0.50;92.60
814;DHT22;389;48.710;9.392;2023-03-01T01:26:42;-0.40;92.60
814;DHT22;389;48.710;9.392;2023-03-01T01:29:02;-0.40;92.60
814;DHT22;389;48.710;9.392;2023-03-01T01:31:29;-0.40;92.50
814;DHT22;389;48.710;9.392;2023-03-01T01:33:55;-0.30;92.60
814;DHT22;389;48.710;9.392;2023-03-01T01:36:21;-0.30;92.60
814;DHT22;389;48.710;9.392;2023-03-01T01:38:46;-0.30;92.60
814;DHT22;389;48.710;9.392;2023-03-01T01:41:12;-0.20;92.70
814;DHT22;389;48.710;9.392;2023-03-01T01:43:44;-0.10;92.70
814;DHT22;389;48.710;9.392;2023-03-01T01:46:28;-0.10;92.70
814;DHT22;389;48.710;9.392;2023-03-01T01:49:02;0.00;92.80
814;DHT22;389;48.710;9.392;2023-03-01T01:51:35;0.10;92.70
814;DHT22;389;48.710;9.392;2023-03-01T01:54:08;0.20;92.70
814;DHT22;389;48.710;9.392;2023-03-01T01:56:36;0.30;92.60
814;DHT22;389;48.710;9.392;2023-03-01T01:59:03;0.40;92.50
814;DHT22;389;48.710;9.392;2023-03-01T02:01:29;0.50;92.30
814;DHT22;389;48.710;9.392;2023-03-01T02:03:54;0.60;92.20
814;DHT22;389;48.710;9.392;2023-03-01T02:06:31;0.70;92.10
814;DHT22;389;48.710;9.392;2023-03-01T02:09:03;0.60;91.70
814;DHT22;389;48.710;9.392;2023-03-01T02:11:31;0.90;91.80
814;DHT22;389;48.710;9.392;2023-03-01T02:13:57;1.00;91.70
814;DHT22;389;48.710;9.392;2023-03-01T02:16:22;1.20;91.60
814;DHT22;389;48.710;9.392;2023-03-01T02:18:49;1.10;91.40
814;DHT22;389;48.710;9.392;2023-03-01T02:24:30;1.20;91.20
814;DHT22;389;48.710;9.392;2023-03-01T02:26:57;1.30;91.10
814;DHT22;389;48.710;9.392;2023-03-01T02:29:24;1.30;90.60
814;DHT22;389;48.710;9.392;2023-03-01T02:31:51;1.40;90.60
814;DHT22;389;48.710;9.392;2023-03-01T02:34:22;1.50;90.60
814;DHT22;389;48.710;9.392;2023-03-01T02:36:56;1.50;90.50
814;DHT22;389;48.710;9.392;2023-03-01T02:39:28;1.50;90.50
814;DHT22;389;48.710;9.392;2023-03-01T02:41:56;1.60;90.50
814;DHT22;389;48.710;9.392;2023-03-01T02:44:23;1.60;90.40
814;DHT22;389;48.710;9.392;2023-03-01T02:46:51;1.60;90.30
814;DHT22;389;48.710;9.392;2023-03-01T02:55:00;1.70;90.10
814;DHT22;389;48.710;9.392;2023-03-01T02:57:29;1.70;90.10
814;DHT22;389;48.710;9.392;2023-03-01T02:59:58;1.70;90.00
814;DHT22;389;48.710;9.392;2023-03-01T03:02:28;1.70;89.90
814;DHT22;389;48.710;9.392;2023-03-01T03:05:19;1.80;89.90
814;DHT22;389;48.710;9.392;2023-03-01T03:07:47;1.80;89.80
814;DHT22;389;48.710;9.392;2023-03-01T03:12:55;1.80;89.50
814;DHT22;389;48.710;9.392;2023-03-01T03:15:22;1.90;89.60
814;DHT22;389;48.710;9.392;2023-03-01T03:17:48;1.90;90.00
814;DHT22;389;48.710;9.392;2023-03-01T03:20:18;1.90;89.20
814;DHT22;389;48.710;9.392;2023-03-01T03:22:48;2.00;89.20
814;DHT22;389;48.710;9.392;2023-03-01T03:25:14;2.00;89.00
814;DHT22;389;48.710;9.392;2023-03-01T03:27:42;2.00;88.90
814;DHT22;389;48.710;9.392;2023-03-01T03:30:11;2.00;88.80
814;DHT22;389;48.710;9.392;2023-03-01T03:32:42;2.00;88.80
814;DHT22;389;48.710;9.392;2023-03-01T03:35:09;2.00;88.70
814;DHT22;389;48.710;9.392;2023-03-01T03:37:39;2.00;88.90
814;DHT22;389;48.710;9.392;2023-03-01T03:40:24;2.00;88.90
814;DHT22;389;48.710;9.392;2023-03-01T03:42:49;2.00;88.80
814;DHT22;389;48.710;9.392;2023-03-01T03:45:16;2.00;88.90
814;DHT22;389;48.710;9.392;2023-03-01T03:47:42;2.10;89.00
814;DHT22;389;48.710;9.392;2023-03-01T03:50:14;2.10;89.00
814;DHT22;389;48.710;9.392;2023-03-01T03:52:40;2.10;89.10
814;DHT22;389;48.710;9.392;2023-03-01T03:55:07;2.10;89.00
814;DHT22;389;48.710;9.392;2023-03-01T03:57:40;2.10;89.00
814;DHT22;389;48.710;9.392;2023-03-01T04:00:08;2.10;89.00
814;DHT22;389;48.710;9.392;2023-03-01T04:02:41;2.10;88.90
814;DHT22;389;48.710;9.392;2023-03-01T04:05:09;2.10;88.90
814;DHT22;389;48.710;9.392;2023-03-01T04:07:36;2.10;88.90
814;DHT22;389;48.710;9.392;2023-03-01T04:10:03;2.10;88.90
814;DHT22;389;48.710;9.392;2023-03-01T04:12:29;2.20;89.00
814;DHT22;389;48.710;9.392;2023-03-01T04:14:55;2.10;88.90
814;DHT22;389;48.710;9.392;2023-03-01T04:17:20;2.20;89.00
814;DHT22;389;48.710;9.392;2023-03-01T04:19:46;2.20;89.00
814;DHT22;389;48.710;9.392;2023-03-01T04:22:14;2.10;88.80
814;DHT22;389;48.710;9.392;2023-03-01T04:24:42;2.10;88.60
814;DHT22;389;48.710;9.392;2023-03-01T04:27:08;2.20;88.70
814;DHT22;389;48.710;9.392;2023-03-01T04:29:34;2.20;88.70
814;DHT22;389;48.710;9.392;2023-03-01T04:32:00;2.20;88.70
814;DHT22;389;48.710;9.392;2023-03-01T04:34:25;2.20;88.60
814;DHT22;389;48.710;9.392;2023-03-01T04:36:52;2.20;88.60
814;DHT22;389;48.710;9.392;2023-03-01T04:39:18;2.20;88.60
814;DHT22;389;48.710;9.392;2023-03-01T04:41:43;2.20;88.60
814;DHT22;389;48.710;9.392;2023-03-01T04:44:09;2.20;88.30
814;DHT22;389;48.710;9.392;2023-03-01T04:46:35;2.10;88.00
814;DHT22;389;48.710;9.392;2023-03-01T04:49:02;2.10;87.90
814;DHT22;389;48.710;9.392;2023-03-01T04:51:28;2.10;87.80
814;DHT22;389;48.710;9.392;2023-03-01T04:53:54;2.10;87.90
814;DHT22;389;48.710;9.392;2023-03-01T04:56:20;2.10;88.00
814;DHT22;389;48.710;9.392;2023-03-01T04:58:48;2.10;87.90
814;DHT22;389;48.710;9.392;2023-03-01T05:01:18;2.10;88.00
814;DHT22;389;48.710;9.392;2023-03-01T05:03:46;2.20;88.00
814;DHT22;389;48.710;9.392;2023-03-01T05:06:13;2.20;88.00
814;DHT22;389;48.710;9.392;2023-03-01T05:08:39;2.20;88.00
814;DHT22;389;48.710;9.392;2023-03-01T05:11:06;2.30;88.10
814;DHT22;389;48.710;9.392;2023-03-01T05:13:35;2.30;88.10
814;DHT22;389;48.710;9.392;2023-03-01T05:16:02;2.30;88.10
814;DHT22;389;48.710;9.392;2023-03-01T05:18:32;2.30;88.20
814;DHT22;389;48.710;9.392;2023-03-01T05:21:09;2.30;88.30
814;DHT22;389;48.710;9.392;2023-03-01T05:23:35;2.30;88.40
814;DHT22;389;48.710;9.392;2023-03-01T05:26:02;2.30;88.40
814;DHT22;389;48.710;9.392;2023-03-01T05:28:29;2.30;88.40
814;DHT22;389;48.710;9.392;2023-03-01T05:30:56;2.30;88.40
814;DHT22;389;48.710;9.392;2023-03-01T05:33:23;2.30;88.10
814;DHT22;389;48.710;9.392;2023-03-01T05:35:50;2.40;87.70
814;DHT22;389;48.710;9.392;2023-03-01T05:38:17;2.40;87.60
814;DHT22;389;48.710;9.392;2023-03-01T05:40:45;2.40;87.50
814;DHT22;389;48.710;9.392;2023-03-01T05:43:11;2.40;87.30
814;DHT22;389;48.710;9.392;2023-03-01T05:45:38;2.30;87.20
814;DHT22;389;48.710;9.392;2023-03-01T05:48:05;2.40;87.40
814;DHT22;389;48.710;9.392;2023-03-01T05:50:33;2.40;87.50
814;DHT22;389;48.710;9.392;2023-03-01T05:53:01;2.40;87.40
814;DHT22;389;48.710;9.392;2023-03-01T05:55:29;2.40;87.30
814;DHT22;389;48.710;9.392;2023-03-01T05:57:55;2.40;87.30
814;DHT22;389;48.710;9.392;2023-03-01T06:00:22;2.40;87.10
814;DHT22;389;48.710;9.392;2023-03-01T06:02:48;2.30;87.00
814;DHT22;389;48.710;9.392;2023-03-01T06:05:14;2.30;87.10
814;DHT22;389;48.710;9.392;2023-03-01T06:07:40;2.30;87.10
814;DHT22;389;48.710;9.392;2023-03-01T06:10:07;2.30;87.10
814;DHT22;389;48.710;9.392;2023-03-01T06:12:34;2.30;87.20
814;DHT22;389;48.710;9.392;2023-03-01T06:15:01;2.30;87.30
814;DHT22;389;48.710;9.392;2023-03-01T06:17:29;2.30;87.50
814;DHT22;389;48.710;9.392;2023-03-01T06:19:55;2.30;87.60
814;DHT22;389;48.710;9.392;2023-03-01T06:22:20;2.30;87.70
814;DHT22;389;48.710;9.392;2023-03-01T06:24:46;2.30;87.60
814;DHT22;389;48.710;9.392;2023-03-01T06:27:12;2.30;87.70
814;DHT22;389;48.710;9.392;2023-03-01T06:29:37;2.20;87.80
814;DHT22;389;48.710;9.392;2023-03-01T06:32:03;2.20;87.80
814;DHT22;389;48.710;9.392;2023-03-01T06:34:29;2.20;88.00
814;DHT22;389;48.710;9.392;2023-03-01T06:36:55;2.20;88.10
814;DHT22;389;48.710;9.392;2023-03-01T06:39:20;2.20;87.90
814;DHT22;389;48.710;9.392;2023-03-01T06:41:46;2.20;87.70
814;DHT22;389;48.710;9.392;2023-03-01T06:44:11;2.10;87.40
814;DHT22;389;48.710;9.392;2023-03-01T06:46:39;2.10;87.40
814;DHT22;389;48.710;9.392;2023-03-01T06:49:04;2.00;87.30
814;DHT22;389;48.710;9.392;2023-03-01T06:51:35;2.00;87.40
814;DHT22;389;48.710;9.392;2023-03-01T06:54:00;2.00;87.50
814;DHT22;389;48.710;9.392;2023-03-01T06:56:26;2.00;87.60
814;DHT22;389;48.710;9.392;2023-03-01T06:58:52;2.00;87.60
814;DHT22;389;48.710;9.392;2023-03-01T07:01:17;2.00;87.60
814;DHT22;389;48.710;9.392;2023-03-01T07:03:43;2.00;87.80
814;DHT22;389;48.710;9.392;2023-03-01T07:06:09;2.00;88.10
814;DHT22;389;48.710;9.392;2023-03-01T07:08:35;1.90;88.10
814;DHT22;389;48.710;9.392;2023-03-01T07:11:01;2.00;88.20
814;DHT22;389;48.710;9.392;2023-03-01T07:13:28;2.00;88.10
814;DHT22;389;48.710;9.392;2023-03-01T07:15:54;2.00;88.00
814;DHT22;389;48.710;9.392;2023-03-01T07:18:19;2.10;88.00
814;DHT22;389;48.710;9.392;2023-03-01T07:20:45;2.00;87.80
814;DHT22;389;48.710;9.392;2023-03-01T07:23:10;2.00;87.70
814;DHT22;389;48.710;9.392;2023-03-01T07:25:36;2.10;87.80
814;DHT22;389;48.710;9.392;2023-03-01T07:28:02;2.10;87.70
814;DHT22;389;48.710;9.392;2023-03-01T07:30:27;2.10;87.50
814;DHT22;389;48.710;9.392;2023-03-01T07:32:55;2.20;87.60
814;DHT22;389;48.710;9.392;2023-03-01T07:35:21;2.30;87.40
814;DHT22;389;48.710;9.392;2023-03-01T07:37:47;2.30;87.00
814;DHT22;389;48.710;9.392;2023-03-01T07:40:13;2.40;87.10
814;DHT22;389;48.710;9.392;2023-03-01T07:42:38;2.40;86.80
814;DHT22;389;48.710;9.392;2023-03-01T07:45:06;2.50;86.70
814;DHT22;389;48.710;9.392;2023-03-01T07:47:32;2.50;86.50
814;DHT22;389;48.710;9.392;2023-03-01T07:49:57;2.60;86.60
814;DHT22;389;48.710;9.392;2023-03-01T07:52:23;2.60;86.30
814;DHT22;389;48.710;9.392;2023-03-01T07:54:49;2.70;86.00
814;DHT22;389;48.710;9.392;2023-03-01T07:57:15;2.70;85.80
814;DHT22;389;48.710;9.392;2023-03-01T07:59:40;2.80;85.50
814;DHT22;389;48.710;9.392;2023-03-01T08:02:06;2.90;85.40
814;DHT22;389;48.710;9.392;2023-03-01T08:04:32;2.90;85.20
814;DHT22;389;48.710;9.392;2023-03-01T08:06:58;3.00;85.00
814;DHT22;389;48.710;9.392;2023-03-01T08:09:24;3.00;84.70
814;DHT22;389;48.710;9.392;2023-03-01T08:11:50;3.10;84.70
814;DHT22;389;48.710;9.392;2023-03-01T08:14:15;3.20;84.50
814;DHT22;389;48.710;9.392;2023-03-01T08:16:41;3.20;84.00
814;DHT22;389;48.710;9.392;2023-03-01T08:19:08;3.30;83.80
814;DHT22;389;48.710;9.392;2023-03-01T08:21:34;3.30;83.70
814;DHT22;389;48.710;9.392;2023-03-01T08:24:01;3.40;83.30
814;DHT22;389;48.710;9.392;2023-03-01T08:26:26;3.50;83.00
814;DHT22;389;48.710;9.392;2023-03-01T08:28:52;3.50;82.70
814;DHT22;389;48.710;9.392;2023-03-01T08:31:21;3.60;82.80
814;DHT22;389;48.710;9.392;2023-03-01T08:33:48;3.70;82.60
814;DHT22;389;48.710;9.392;2023-03-01T08:36:17;3.80;82.10
814;DHT22;389;48.710;9.392;2023-03-01T08:38:43;3.80;81.60
814;DHT22;389;48.710;9.392;2023-03-01T08:41:09;3.90;81.50
814;DHT22;389;48.710;9.392;2023-03-01T08:43:34;4.00;81.10
814;DHT22;389;48.710;9.392;2023-03-01T08:46:00;4.00;80.70
814;DHT22;389;48.710;9.392;2023-03-01T08:48:27;4.10;80.90
814;DHT22;389;48.710;9.392;2023-03-01T08:50:53;4.20;80.80
814;DHT22;389;48.710;9.392;2023-03-01T08:53:19;4.20;80.00
814;DHT22;389;48.710;9.392;2023-03-01T08:55:44;4.30;79.80
814;DHT22;389;48.710;9.392;2023-03-01T08:58:10;4.40;79.70
814;DHT22;389;48.710;9.392;2023-03-01T09:00:36;4.40;78.90
814;DHT22;389;48.710;9.392;2023-03-01T09:03:02;4.50;78.80
814;DHT22;389;48.710;9.392;2023-03-01T09:05:27;4.60;78.80
814;DHT22;389;48.710;9.392;2023-03-01T09:07:53;4.70;78.80
814;DHT22;389;48.710;9.392;2023-03-01T09:10:18;4.80;79.20
814;DHT22;389;48.710;9.392;2023-03-01T09:12:44;4.80;78.00
814;DHT22;389;48.710;9.392;2023-03-01T09:15:10;4.90;77.40
814;DHT22;389;48.710;9.392;2023-03-01T09:17:35;5.00;77.00
814;DHT22;389;48.710;9.392;2023-03-01T09:20:01;5.00;77.10
814;DHT22;389;48.710;9.392;2023-03-01T09:22:27;5.10;76.50
814;DHT22;389;48.710;9.392;2023-03-01T09:24:52;5.10;76.20
814;DHT22;389;48.710;9.392;2023-03-01T09:27:18;5.10;76.00
814;DHT22;389;48.710;9.392;2023-03-01T09:29:45;5.10;76.00
814;DHT22;389;48.710;9.392;2023-03-01T09:32:10;5.20;75.80
814;DHT22;389;48.710;9.392;2023-03-01T09:34:36;5.20;75.60
814;DHT22;389;48.710;9.392;2023-03-01T09:37:22;5.30;75.90
814;DHT22;389;48.710;9.392;2023-03-01T09:39:47;5.40;75.70
814;DHT22;389;48.710;9.392;2023-03-01T09:42:13;5.50;75.50
814;DHT22;389;48.710;9.392;2023-03-01T09:44:53;5.60;75.00
814;DHT22;389;48.710;9.392;2023-03-01T09:47:23;5.70;74.70
814;DHT22;389;48.710;9.392;2023-03-01T09:50:12;5.80;74.40
814;DHT22;389;48.710;9.392;2023-03-01T09:55:59;5.80;73.50
814;DHT22;389;48.710;9.392;2023-03-01T09:58:34;5.90;73.90
814;DHT22;389;48.710;9.392;2023-03-01T10:07:04;6.10;73.90
814;DHT22;389;48.710;9.392;2023-03-01T10:09:34;6.10;73.30
814;DHT22;389;48.710;9.392;2023-03-01T10:12:01;6.20;73.00
814;DHT22;389;48.710;9.392;2023-03-01T10:14:42;6.20;73.00
814;DHT22;389;48.710;9.392;2023-03-01T10:17:12;6.30;73.60
814;DHT22;389;48.710;9.392;2023-03-01T10:19:42;6.40;72.80
814;DHT22;389;48.710;9.392;2023-03-01T10:22:24;6.40;72.40
814;DHT22;389;48.710;9.392;2023-03-01T10:24:54;6.40;72.10
814;DHT22;389;48.710;9.392;2023-03-01T10:27:24;6.40;72.30
814;DHT22;389;48.710;9.392;2023-03-01T10:32:36;6.50;72.00
814;DHT22;389;48.710;9.392;2023-03-01T10:35:19;6.60;72.10
814;DHT22;389;48.710;9.392;2023-03-01T10:40:24;6.70;71.60
814;DHT22;389;48.710;9.392;2023-03-01T10:42:50;6.70;71.60
814;DHT22;389;48.710;9.392;2023-03-01T10:50:29;7.00;71.10
814;DHT22;389;48.710;9.392;2023-03-01T10:53:00;7.10;71.00
814;DHT22;389;48.710;9.392;2023-03-01T10:55:31;7.10;71.10
814;DHT22;389;48.710;9.392;2023-03-01T10:58:18;7.20;70.50
814;DHT22;389;48.710;9.392;2023-03-01T11:00:56;7.20;70.40
814;DHT22;389;48.710;9.392;2023-03-01T11:08:31;7.20;70.20
814;DHT22;389;48.710;9.392;2023-03-01T11:13:35;7.40;70.20
814;DHT22;389;48.710;9.392;2023-03-01T11:16:03;7.50;70.60
814;DHT22;389;48.710;9.392;2023-03-01T11:18:30;7.50;69.10
814;DHT22;389;48.710;9.392;2023-03-01T11:20:58;7.60;69.10
814;DHT22;389;48.710;9.392;2023-03-01T11:23:24;7.60;69.20
814;DHT22;389;48.710;9.392;2023-03-01T11:26:02;7.70;69.10
814;DHT22;389;48.710;9.392;2023-03-01T11:28:29;7.80;68.90
814;DHT22;389;48.710;9.392;2023-03-01T11:38:41;8.10;68.40
814;DHT22;389;48.710;9.392;2023-03-01T11:41:26;8.20;68.30
814;DHT22;389;48.710;9.392;2023-03-01T11:43:59;8.20;67.50
814;DHT22;389;48.710;9.392;2023-03-01T11:46:51;8.30;67.60
814;DHT22;389;48.710;9.392;2023-03-01T11:49:54;8.40;67.60
814;DHT22;389;48.710;9.392;2023-03-01T12:08:25;8.60;65.90
814;DHT22;389;48.710;9.392;2023-03-01T12:20:00;8.70;65.50
814;DHT22;389;48.710;9.392;2023-03-01T12:28:30;8.80;65.80
814;DHT22;389;48.710;9.392;2023-03-01T12:34:01;8.80;65.00
814;DHT22;389;48.710;9.392;2023-03-01T12:37:04;8.80;65.40
814;DHT22;389;48.710;9.392;2023-03-01T12:39:55;8.90;65.70
814;DHT22;389;48.710;9.392;2023-03-01T12:42:51;8.90;65.50
814;DHT22;389;48.710;9.392;2023-03-01T12:45:44;8.90;64.80
814;DHT22;389;48.710;9.392;2023-03-01T12:51:01;9.10;65.40
814;DHT22;389;48.710;9.392;2023-03-01T12:53:49;9.10;65.10
814;DHT22;389;48.710;9.392;2023-03-01T12:56:22;9.10;65.10
814;DHT22;389;48.710;9.392;2023-03-01T12:58:55;9.20;65.20
814;DHT22;389;48.710;9.392;2023-03-01T13:04:14;9.30;65.70
814;DHT22;389;48.710;9.392;2023-03-01T13:06:44;9.30;65.00
814;DHT22;389;48.710;9.392;2023-03-01T13:09:22;9.40;65.20
814;DHT22;389;48.710;9.392;2023-03-01T13:11:49;9.40;65.10
814;DHT22;389;48.710;9.392;2023-03-01T13:16:47;9.60;65.00
814;DHT22;389;48.710;9.392;2023-03-01T13:19:25;9.60;64.70
814;DHT22;389;48.710;9.392;2023-03-01T13:21:53;9.60;64.20
814;DHT22;389;48.710;9.392;2023-03-01T13:24:35;9.70;64.30
814;DHT22;389;48.710;9.392;2023-03-01T13:29:55;9.80;64.20
814;DHT22;389;48.710;9.392;2023-03-01T13:32:32;9.80;64.20
814;DHT22;389;48.710;9.392;2023-03-01T13:35:44;9.80;63.60
814;DHT22;389;48.710;9.392;2023-03-01T13:37:45;9.90;63.60
814;DHT22;389;48.710;9.392;2023-03-01T13:42:51;9.90;63.80
814;DHT22;389;48.710;9.392;2023-03-01T13:45:36;9.90;63.30
814;DHT22;389;48.710;9.392;2023-03-01T13:48:25;9.90;63.20
814;DHT22;389;48.710;9.392;2023-03-01T13:51:03;9.80;63.20
814;DHT22;389;48.710;9.392;2023-03-01T13:53:33;9.80;63.10
814;DHT22;389;48.710;9.392;2023-03-01T13:56:24;9.80;63.30
814;DHT22;389;48.710;9.392;2023-03-01T13:58:58;9.80;63.20
814;DHT22;389;48.710;9.392;2023-03-01T14:01:33;9.90;63.40
814;DHT22;389;48.710;9.392;2023-03-01T14:04:00;9.90;63.40
814;DHT22;389;48.710;9.392;2023-03-01T14:06:32;9.90;63.30
814;DHT22;389;48.710;9.392;2023-03-01T14:09:20;9.90;63.10
814;DHT22;389;48.710;9.392;2023-03-01T14:17:06;10.00;62.20
814;DHT22;389;48.710;9.392;2023-03-01T14:19:36;10.00;62.10
814;DHT22;389;48.710;9.392;2023-03-01T14:22:24;10.10;62.00
814;DHT22;389;48.710;9.392;2023-03-01T14:24:56;10.10;62.10
814;DHT22;389;48.710;9.392;2023-03-01T14:27:27;10.20;62.00
814;DHT22;389;48.710;9.392;2023-03-01T14:30:00;10.10;61.80
814;DHT22;389;48.710;9.392;2023-03-01T14:32:28;10.10;62.00
814;DHT22;389;48.710;9.392;2023-03-01T14:34:55;10.10;62.00
814;DHT22;389;48.710;9.392;2023-03-01T14:37:31;10.10;62.30
814;DHT22;389;48.710;9.392;2023-03-01T14:39:58;10.10;62.20
814;DHT22;389;48.710;9.392;2023-03-01T14:42:27;10.10;62.20
814;DHT22;389;48.710;9.392;2023-03-01T14:44:54;10.00;62.10
814;DHT22;389;48.710;9.392;2023-03-01T14:47:27;9.90;63.90
814;DHT22;389;48.710;9.392;2023-03-01T14:50:00;9.90;63.60
814;DHT22;389;48.710;9.392;2023-03-01T14:52:38;9.90;63.80
814;DHT22;389;48.710;9.392;2023-03-01T14:55:09;9.90;64.00
814;DHT22;389;48.710;9.392;2023-03-01T14:57:44;9.90;63.90
814;DHT22;389;48.710;9.392;2023-03-01T15:00:17;9.90;63.70
814;DHT22;389;48.710;9.392;2023-03-01T15:02:44;9.80;63.60
814;DHT22;389;48.710;9.392;2023-03-01T15:05:14;9.80;64.00
814;DHT22;389;48.710;9.392;2023-03-01T15:07:42;9.70;64.00
814;DHT22;389;48.710;9.392;2023-03-01T15:10:32;9.70;64.00
814;DHT22;389;48.710;9.392;2023-03-01T15:13:24;9.50;63.40
814;DHT22;389;48.710;9.392;2023-03-01T15:15:51;9.70;63.90
814;DHT22;389;48.710;9.392;2023-03-01T15:18:21;9.70;63.90
814;DHT22;389;48.710;9.392;2023-03-01T15:20:49;9.70;64.30
814;DHT22;389;48.710;9.392;2023-03-01T15:23:25;9.70;64.00
814;DHT22;389;48.710;9.392;2023-03-01T15:25:52;9.70;63.60
814;DHT22;389;48.710;9.392;2023-03-01T15:28:34;9.70;63.50
814;DHT22;389;48.710;9.392;2023-03-01T15:31:22;9.60;63.50
814;DHT22;389;48.710;9.392;2023-03-01T15:33:48;9.60;63.80
814;DHT22;389;48.710;9.392;2023-03-01T15:36:39;9.60;63.30
814;DHT22;389;48.710;9.392;2023-03-01T15:44:36;9.50;63.70
814;DHT22;389;48.710;9.392;2023-03-01T15:49:52;9.40;64.10
814;DHT22;389;48.710;9.392;2023-03-01T15:52:35;9.40;64.10
814;DHT22;389;48.710;9.392;2023-03-01T15:55:14;9.40;64.10
814;DHT22;389;48.710;9.392;2023-03-01T15:57:40;9.40;64.10
814;DHT22;389;48.710;9.392;2023-03-01T16:00:08;9.40;64.00
814;DHT22;389;48.710;9.392;2023-03-01T16:02:37;9.40;64.00
814;DHT22;389;48.710;9.392;2023-03-01T16:05:03;9.40;64.20
814;DHT22;389;48.710;9.392;2023-03-01T16:07:29;9.30;64.00
814;DHT22;389;48.710;9.392;2023-03-01T16:09:56;9.30;64.00
814;DHT22;389;48.710;9.392;2023-03-01T16:12:22;9.20;63.80
814;DHT22;389;48.710;9.392;2023-03-01T16:14:49;9.20;64.10
814;DHT22;389;48.710;9.392;2023-03-01T16:17:15;9.10;63.90
814;DHT22;389;48.710;9.392;2023-03-01T16:19:40;9.10;64.20
814;DHT22;389;48.710;9.392;2023-03-01T16:22:07;9.10;64.20
814;DHT22;389;48.710;9.392;2023-03-01T16:24:33;9.00;64.40
814;DHT22;389;48.710;9.392;2023-03-01T16:27:01;9.00;64.40
814;DHT22;389;48.710;9.392;2023-03-01T16:29:27;9.00;64.60
814;DHT22;389;48.710;9.392;2023-03-01T16:31:54;8.90;64.70
814;DHT22;389;48.710;9.392;2023-03-01T16:34:20;8.80;65.00
814;DHT22;389;48.710;9.392;2023-03-01T16:40:35;8.70;65.20
814;DHT22;389;48.710;9.392;2023-03-01T16:43:01;8.70;65.60
814;DHT22;389;48.710;9.392;2023-03-01T16:45:33;8.60;66.00
814;DHT22;389;48.710;9.392;2023-03-01T16:47:59;8.60;66.10
814;DHT22;389;48.710;9.392;2023-03-01T16:50:25;8.50;66.30
814;DHT22;389;48.710;9.392;2023-03-01T16:52:50;8.40;66.10
814;DHT22;389;48.710;9.392;2023-03-01T16:55:16;8.30;66.00
814;DHT22;389;48.710;9.392;2023-03-01T16:57:42;8.20;66.10
814;DHT22;389;48.710;9.392;2023-03-01T17:00:08;8.10;66.30
814;DHT22;389;48.710;9.392;2023-03-01T17:02:35;8.10;66.30
814;DHT22;389;48.710;9.392;2023-03-01T17:05:01;8.00;66.40
814;DHT22;389;48.710;9.392;2023-03-01T17:07:28;8.00;66.70
814;DHT22;389;48.710;9.392;2023-03-01T17:09:54;7.90;66.60
814;DHT22;389;48.710;9.392;2023-03-01T17:12:19;7.90;66.70
814;DHT22;389;48.710;9.392;2023-03-01T17:14:45;7.80;66.90
814;DHT22;389;48.710;9.392;2023-03-01T17:17:11;7.80;66.90
814;DHT22;389;48.710;9.392;2023-03-01T17:19:37;7.70;67.00
814;DHT22;389;48.710;9.392;2023-03-01T17:22:10;7.60;67.00
814;DHT22;389;48.710;9.392;2023-03-01T17:24:37;7.60;67.10
814;DHT22;389;48.710;9.392;2023-03-01T17:27:03;7.60;67.40
814;DHT22;389;48.710;9.392;2023-03-01T17:29:29;7.40;67.60
814;DHT22;389;48.710;9.392;2023-03-01T17:31:55;7.40;67.90
814;DHT22;389;48.710;9.392;2023-03-01T17:34:22;7.40;68.50
814;DHT22;389;48.710;9.392;2023-03-01T17:36:47;7.20;68.20
814;DHT22;389;48.710;9.392;2023-03-01T17:39:15;7.20;68.10
814;DHT22;389;48.710;9.392;2023-03-01T17:41:41;7.10;68.60
814;DHT22;389;48.710;9.392;2023-03-01T17:44:07;7.00;69.00
814;DHT22;389;48.710;9.392;2023-03-01T17:46:33;6.90;69.40
814;DHT22;389;48.710;9.392;2023-03-01T17:48:59;6.80;70.20
814;DHT22;389;48.710;9.392;2023-03-01T17:51:25;6.70;70.00
814;DHT22;389;48.710;9.392;2023-03-01T17:53:50;6.60;70.20
814;DHT22;389;48.710;9.392;2023-03-01T17:56:16;6.50;70.70
814;DHT22;389;48.710;9.392;2023-03-01T17:58:42;6.40;70.90
814;DHT22;389;48.710;9.392;2023-03-01T18:01:09;6.30;71.20
814;DHT22;389;48.710;9.392;2023-03-01T18:03:36;6.20;71.20
814;DHT22;389;48.710;9.392;2023-03-01T18:06:02;6.10;71.40
814;DHT22;389;48.710;9.392;2023-03-01T18:08:34;5.90;71.70
814;DHT22;389;48.710;9.392;2023-03-01T18:10:59;5.80;72.20
814;DHT22;389;48.710;9.392;2023-03-01T18:13:25;5.70;72.40
814;DHT22;389;48.710;9.392;2023-03-01T18:15:50;5.60;72.70
814;DHT22;389;48.710;9.392;2023-03-01T18:18:16;5.50;73.10
814;DHT22;389;48.710;9.392;2023-03-01T18:20:42;5.40;73.50
814;DHT22;389;48.710;9.392;2023-03-01T18:23:08;5.20;74.20
814;DHT22;389;48.710;9.392;2023-03-01T18:25:33;5.20;74.70
814;DHT22;389;48.710;9.392;2023-03-01T18:27:59;5.10;74.70
814;DHT22;389;48.710;9.392;2023-03-01T18:30:25;5.10;74.80
814;DHT22;389;48.710;9.392;2023-03-01T18:32:51;5.10;74.90
814;DHT22;389;48.710;9.392;2023-03-01T18:35:21;5.10;75.10
814;DHT22;389;48.710;9.392;2023-03-01T18:37:47;4.90;75.10
814;DHT22;389;48.710;9.392;2023-03-01T18:40:14;4.80;75.70
814;DHT22;389;48.710;9.392;2023-03-01T18:42:39;4.70;77.00
814;DHT22;389;48.710;9.392;2023-03-01T18:45:05;4.60;77.30
814;DHT22;389;48.710;9.392;2023-03-01T18:47:31;4.60;77.40
814;DHT22;389;48.710;9.392;2023-03-01T18:49:57;4.50;77.70
814;DHT22;389;48.710;9.392;2023-03-01T18:52:22;4.40;77.80
814;DHT22;389;48.710;9.392;2023-03-01T18:54:48;4.30;77.90
814;DHT22;389;48.710;9.392;2023-03-01T18:57:14;4.30;78.20
814;DHT22;389;48.710;9.392;2023-03-01T18:59:39;4.20;79.10
814;DHT22;389;48.710;9.392;2023-03-01T19:02:14;4.20;79.60
814;DHT22;389;48.710;9.392;2023-03-01T19:04:51;4.20;80.10
814;DHT22;389;48.710;9.392;2023-03-01T19:07:20;4.20;80.20
814;DHT22;389;48.710;9.392;2023-03-01T19:09:46;4.00;80.30
814;DHT22;389;48.710;9.392;2023-03-01T19:12:11;4.10;80.50
814;DHT22;389;48.710;9.392;2023-03-01T19:14:37;4.20;80.60
814;DHT22;389;48.710;9.392;2023-03-01T19:17:03;4.00;80.70